Time;durP1;ratioP1;P1;durP2;ratioP2;P2;SDS_P1;SDS_P2;PMS_P1;PMS_P2;Temp;Humidity;BMP_temperature;BMP_pressure;BME280_temperature;BME280_humidity;BME280_pressure;Samples;Min_cycle;Max_cycle;Signal;HPM_P1;HPM_P2
2024/04/04 00:01:19;;;;;;;1.33;1.23;;;;;;;;;;6018580;23;20204;-83
2024/04/04 00:03:45;;;;;;;1.20;1.10;;;;;;;;;;6042530;23;20184;-85
2024/04/04 00:06:14;;;;;;;0.80;0.80;;;;;;;;;;6042335;23;20547;-84
2024/04/04 00:08:41;;;;;;;1.40;1.23;;;;;;;;;;6042341;23;20175;-86
2024/04/04 00:11:09;;;;;;;1.10;1.00;;;;;;;;;;6018198;23;20201;-83
2024/04/04 00:13:38;;;;;;;1.43;1.20;;;;;;;;;;6042190;23;20193;-83
2024/04/04 00:16:11;;;;;;;0.97;0.93;;;;;;;;;;6041916;23;20174;-84
2024/04/04 00:18:42;;;;;;;2.30;2.10;;;;;;;;;;6065635;23;20178;-84
2024/04/04 00:21:08;;;;;;;1.90;1.70;;;;;;;;;;6041616;23;20166;-83
2024/04/04 00:23:36;;;;;;;1.50;1.40;;;;;;;;;;6065753;23;20194;-83
2024/04/04 00:26:04;;;;;;;1.23;1.10;;;;;;;;;;6041165;23;20179;-83
2024/04/04 00:28:32;;;;;;;1.10;1.00;;;;;;;;;;6041666;23;20171;-83
2024/04/04 00:30:58;;;;;;;0.97;0.97;;;;;;;;;;6041744;23;20166;-82
2024/04/04 00:33:28;;;;;;;2.43;1.00;;;;;;;;;;6063180;23;20170;-82
2024/04/04 00:35:54;;;;;;;1.13;0.77;;;;;;;;;;6040066;23;20199;-83
2024/04/04 00:38:20;;;;;;;1.17;1.17;;;;;;;;;;6046590;23;20236;-83
2024/04/04 00:40:46;;;;;;;0.90;0.60;;;;;;;;;;6070477;23;20172;-83
2024/04/04 00:43:12;;;;;;;0.87;0.70;;;;;;;;;;6023163;23;20172;-84
2024/04/04 00:45:41;;;;;;;1.93;1.80;;;;;;;;;;6046651;23;20169;-84
2024/04/04 00:48:07;;;;;;;0.77;0.77;;;;;;;;;;6046933;23;20207;-84
2024/04/04 00:50:34;;;;;;;1.10;1.00;;;;;;;;;;6070447;23;20177;-83
2024/04/04 00:53:04;;;;;;;0.70;0.63;;;;;;;;;;6024493;23;20611;-83
2024/04/04 00:55:33;;;;;;;1.07;0.97;;;;;;;;;;6023798;23;20161;-83
2024/04/04 00:58:00;;;;;;;0.70;0.70;;;;;;;;;;6023432;23;20248;-84
2024/04/04 01:00:27;;;;;;;0.67;0.53;;;;;;;;;;6023041;23;20175;-85
2024/04/04 01:02:54;;;;;;;0.50;0.50;;;;;;;;;;6023461;23;20261;-84
2024/04/04 01:05:20;;;;;;;1.00;0.50;;;;;;;;;;6022977;23;20280;-84
2024/04/04 01:07:50;;;;;;;0.90;0.40;;;;;;;;;;6022871;23;20200;-84
2024/04/04 01:10:19;;;;;;;0.50;0.50;;;;;;;;;;6047050;23;20652;-84
2024/04/04 01:12:45;;;;;;;0.97;0.60;;;;;;;;;;6022796;23;20255;-85
2024/04/04 01:15:10;;;;;;;0.47;0.40;;;;;;;;;;6046679;23;20191;-85
2024/04/04 01:17:40;;;;;;;0.50;0.50;;;;;;;;;;6071044;23;20202;-84
2024/04/04 01:20:07;;;;;;;0.50;0.50;;;;;;;;;;6069949;23;20164;-82
2024/04/04 01:22:35;;;;;;;0.40;0.40;;;;;;;;;;6022705;23;20195;-84
2024/04/04 01:25:01;;;;;;;0.60;0.60;;;;;;;;;;6022575;23;20176;-82
2024/04/04 01:27:27;;;;;;;0.77;0.40;;;;;;;;;;6020631;23;20226;-83
2024/04/04 01:29:55;;;;;;;0.50;0.30;;;;;;;;;;6067139;23;20169;-83
2024/04/04 01:32:21;;;;;;;0.67;0.30;;;;;;;;;;6022357;23;20212;-83
2024/04/04 01:34:46;;;;;;;0.30;0.30;;;;;;;;;;6046191;23;20715;-83
2024/04/04 01:37:12;;;;;;;0.70;0.50;;;;;;;;;;6017382;23;20679;-83
2024/04/04 01:39:42;;;;;;;0.60;0.37;;;;;;;;;;6041595;23;20173;-84
2024/04/04 01:42:10;;;;;;;0.47;0.47;;;;;;;;;;6018490;23;20232;-83
2024/04/04 01:44:37;;;;;;;1.20;1.07;;;;;;;;;;6065268;23;20625;-83
2024/04/04 01:47:03;;;;;;;0.50;0.50;;;;;;;;;;6040483;23;20189;-83
2024/04/04 01:49:30;;;;;;;0.40;0.40;;;;;;;;;;6017845;23;20244;-84
2024/04/04 01:51:59;;;;;;;1.43;0.60;;;;;;;;;;6065046;23;20243;-83
2024/04/04 01:54:26;;;;;;;0.33;0.30;;;;;;;;;;6017924;23;20173;-84
2024/04/04 01:56:52;;;;;;;0.30;0.30;;;;;;;;;;6064372;23;20180;-83
2024/04/04 01:59:18;;;;;;;0.63;0.60;;;;;;;;;;6040756;23;20204;-82
2024/04/04 02:01:45;;;;;;;1.57;0.87;;;;;;;;;;6064586;23;20260;-85
2024/04/04 02:04:12;;;;;;;1.07;0.37;;;;;;;;;;6041374;23;20209;-83
2024/04/04 02:06:39;;;;;;;0.43;0.43;;;;;;;;;;6041244;23;20225;-84
2024/04/04 02:09:06;;;;;;;0.97;0.60;;;;;;;;;;6018210;23;20182;-83
2024/04/04 02:11:32;;;;;;;1.00;0.53;;;;;;;;;;6041109;23;20170;-83
2024/04/04 02:14:02;;;;;;;1.80;1.53;;;;;;;;;;6065038;23;20179;-85
2024/04/04 02:16:29;;;;;;;1.53;1.43;;;;;;;;;;6040864;23;20174;-83
2024/04/04 02:18:55;;;;;;;1.40;1.30;;;;;;;;;;6041267;23;20165;-83
2024/04/04 02:21:24;;;;;;;1.63;1.53;;;;;;;;;;6064799;23;20164;-83
2024/04/04 02:23:51;;;;;;;1.17;0.73;;;;;;;;;;6018443;23;20177;-84
2024/04/04 02:26:17;;;;;;;1.60;1.50;;;;;;;;;;6065539;23;20194;-83
2024/04/04 02:28:44;;;;;;;1.60;0.40;;;;;;;;;;6042535;23;20509;-84
2024/04/04 02:31:10;;;;;;;0.90;0.40;;;;;;;;;;6019161;23;20259;-84
2024/04/04 02:33:36;;;;;;;0.40;0.40;;;;;;;;;;6066977;23;20300;-83
2024/04/04 02:36:03;;;;;;;1.17;0.50;;;;;;;;;;6044762;23;20256;-83
2024/04/04 02:38:30;;;;;;;0.50;0.30;;;;;;;;;;6024256;23;20211;-83
2024/04/04 02:40:58;;;;;;;0.30;0.30;;;;;;;;;;6023848;23;20188;-83
2024/04/04 02:43:24;;;;;;;0.40;0.30;;;;;;;;;;6047719;23;20180;-85
2024/04/04 02:46:02;;;;;;;0.43;0.40;;;;;;;;;;6047598;23;20168;-84
2024/04/04 02:48:28;;;;;;;0.53;0.40;;;;;;;;;;6023732;23;20270;-83
2024/04/04 02:50:58;;;;;;;0.50;0.30;;;;;;;;;;6023970;23;20180;-83
2024/04/04 02:53:25;;;;;;;0.40;0.40;;;;;;;;;;6071180;23;20243;-83
2024/04/04 02:55:57;;;;;;;0.37;0.37;;;;;;;;;;6047497;23;20173;-83
2024/04/04 02:58:26;;;;;;;0.30;0.30;;;;;;;;;;6024912;23;20172;-84
2024/04/04 03:00:55;;;;;;;0.63;0.40;;;;;;;;;;6023792;23;20255;-84
2024/04/04 03:03:21;;;;;;;0.30;0.30;;;;;;;;;;6024099;23;20260;-83
2024/04/04 03:05:48;;;;;;;0.40;0.30;;;;;;;;;;6047698;23;20193;-82
2024/04/04 03:08:14;;;;;;;0.30;0.30;;;;;;;;;;6023816;23;20271;-83
2024/04/04 03:10:41;;;;;;;0.90;0.40;;;;;;;;;;6047530;23;20169;-82
2024/04/04 03:13:07;;;;;;;0.80;0.40;;;;;;;;;;6071249;23;20168;-82
2024/04/04 03:15:33;;;;;;;0.83;0.47;;;;;;;;;;6023725;23;20228;-83
2024/04/04 03:18:00;;;;;;;1.00;0.40;;;;;;;;;;6047014;23;20172;-82
2024/04/04 03:20:26;;;;;;;1.50;0.50;;;;;;;;;;6046636;23;20208;-83
2024/04/04 03:23:01;;;;;;;0.37;0.37;;;;;;;;;;6027119;23;20164;-83
2024/04/04 03:25:34;;;;;;;0.80;0.50;;;;;;;;;;6048983;23;20199;-83
2024/04/04 03:28:05;;;;;;;1.40;0.60;;;;;;;;;;6025339;23;20193;-83
2024/04/04 03:30:31;;;;;;;1.07;0.67;;;;;;;;;;6047212;23;20247;-83
2024/04/04 03:33:00;;;;;;;0.90;0.50;;;;;;;;;;6023843;23;20173;-83
2024/04/04 03:35:26;;;;;;;0.47;0.47;;;;;;;;;;6046816;23;20182;-83
2024/04/04 03:37:53;;;;;;;0.40;0.40;;;;;;;;;;6042010;23;20201;-84
2024/04/04 03:40:23;;;;;;;0.97;0.50;;;;;;;;;;6020115;23;20291;-83
2024/04/04 03:42:54;;;;;;;0.70;0.50;;;;;;;;;;6066176;23;20245;-83
2024/04/04 03:45:20;;;;;;;0.70;0.50;;;;;;;;;;6066140;23;20257;-84
2024/04/04 03:47:50;;;;;;;1.07;0.70;;;;;;;;;;6042380;23;20206;-83
2024/04/04 03:50:16;;;;;;;0.30;0.30;;;;;;;;;;6042052;23;20188;-83
2024/04/04 03:52:44;;;;;;;0.67;0.60;;;;;;;;;;6019062;23;20512;-82
2024/04/04 03:55:11;;;;;;;0.83;0.60;;;;;;;;;;6041979;23;20184;-82
2024/04/04 03:57:39;;;;;;;0.30;0.30;;;;;;;;;;6018571;23;20170;-83
2024/04/04 04:00:09;;;;;;;0.80;0.40;;;;;;;;;;6041705;23;20180;-84
2024/04/04 04:02:43;;;;;;;1.43;0.50;;;;;;;;;;6066616;23;20237;-83
2024/04/04 04:05:11;;;;;;;2.60;0.60;;;;;;;;;;6019306;23;20228;-83
2024/04/04 04:07:40;;;;;;;1.03;0.60;;;;;;;;;;6041640;23;20202;-83
2024/04/04 04:10:06;;;;;;;0.67;0.40;;;;;;;;;;6041628;23;20181;-83
2024/04/04 04:12:32;;;;;;;0.90;0.50;;;;;;;;;;6041204;23;20165;-83
2024/04/04 04:14:59;;;;;;;1.70;0.40;;;;;;;;;;6065625;23;20184;-84
2024/04/04 04:17:25;;;;;;;0.60;0.40;;;;;;;;;;6017599;23;20166;-84
2024/04/04 04:19:51;;;;;;;0.70;0.40;;;;;;;;;;6065612;23;20171;-84
2024/04/04 04:22:17;;;;;;;1.90;0.40;;;;;;;;;;6017994;23;20651;-84
2024/04/04 04:24:44;;;;;;;0.50;0.50;;;;;;;;;;6065444;23;20549;-85
2024/04/04 04:27:10;;;;;;;1.00;0.30;;;;;;;;;;6041333;23;20206;-83
2024/04/04 04:29:36;;;;;;;1.03;0.47;;;;;;;;;;6018081;23;20169;-84
2024/04/04 04:32:02;;;;;;;0.40;0.40;;;;;;;;;;6041399;23;20205;-83
2024/04/04 04:34:29;;;;;;;0.40;0.40;;;;;;;;;;6017942;23;20165;-83
2024/04/04 04:36:59;;;;;;;1.00;0.40;;;;;;;;;;6017443;23;20284;-83
2024/04/04 04:39:24;;;;;;;1.13;0.60;;;;;;;;;;6065277;23;20171;-83
2024/04/04 04:41:50;;;;;;;1.13;0.40;;;;;;;;;;6041289;23;20256;-84
2024/04/04 04:44:16;;;;;;;0.50;0.40;;;;;;;;;;6041580;23;20233;-84
2024/04/04 04:46:43;;;;;;;0.50;0.50;;;;;;;;;;6040748;23;20199;-83
2024/04/04 04:49:09;;;;;;;0.90;0.50;;;;;;;;;;6017636;23;20224;-83
2024/04/04 04:51:35;;;;;;;0.87;0.40;;;;;;;;;;6040786;23;20261;-84
2024/04/04 04:54:02;;;;;;;0.50;0.40;;;;;;;;;;6017724;23;20170;-84
2024/04/04 04:56:27;;;;;;;0.70;0.50;;;;;;;;;;6040851;23;20233;-83
2024/04/04 04:58:53;;;;;;;0.83;0.50;;;;;;;;;;6065579;23;20202;-83
2024/04/04 05:01:20;;;;;;;0.67;0.30;;;;;;;;;;6017419;23;20201;-83
2024/04/04 05:03:46;;;;;;;0.87;0.50;;;;;;;;;;6041172;23;20167;-83
2024/04/04 05:06:15;;;;;;;0.90;0.37;;;;;;;;;;6017444;23;20183;-84
2024/04/04 05:08:41;;;;;;;1.20;0.40;;;;;;;;;;6041012;23;20170;-83
2024/04/04 05:11:08;;;;;;;0.30;0.30;;;;;;;;;;6065285;23;20205;-84
2024/04/04 05:13:34;;;;;;;0.70;0.40;;;;;;;;;;6017595;23;20254;-83
2024/04/04 05:16:01;;;;;;;0.50;0.40;;;;;;;;;;6017842;23;20179;-84
2024/04/04 05:18:29;;;;;;;1.93;0.30;;;;;;;;;;6017447;23;20182;-85
2024/04/04 05:20:59;;;;;;;0.90;0.40;;;;;;;;;;6041246;23;20243;-84
2024/04/04 05:23:25;;;;;;;1.03;0.40;;;;;;;;;;6017883;23;20240;-84
2024/04/04 05:25:52;;;;;;;0.60;0.50;;;;;;;;;;6018082;23;20629;-84
2024/04/04 05:28:20;;;;;;;0.43;0.33;;;;;;;;;;6041394;23;20195;-84
2024/04/04 05:30:46;;;;;;;0.37;0.30;;;;;;;;;;6041183;23;20169;-84
2024/04/04 05:33:12;;;;;;;0.40;0.30;;;;;;;;;;6065073;23;20174;-83
2024/04/04 05:35:38;;;;;;;0.40;0.30;;;;;;;;;;6064942;23;20174;-84
2024/04/04 05:38:04;;;;;;;1.90;0.40;;;;;;;;;;6045440;23;20215;-84
2024/04/04 05:40:35;;;;;;;1.03;0.40;;;;;;;;;;6046495;23;20250;-84
2024/04/04 05:43:01;;;;;;;1.03;0.30;;;;;;;;;;6022868;23;20722;-84
2024/04/04 05:45:28;;;;;;;0.50;0.30;;;;;;;;;;6023322;23;20194;-84
2024/04/04 05:47:55;;;;;;;1.37;0.40;;;;;;;;;;6022413;23;20288;-83
2024/04/04 05:50:20;;;;;;;1.23;0.37;;;;;;;;;;6046802;23;20245;-85
2024/04/04 05:52:46;;;;;;;2.23;0.40;;;;;;;;;;6022029;23;20175;-83
2024/04/04 05:55:13;;;;;;;1.97;0.40;;;;;;;;;;6046294;23;20562;-84
2024/04/04 05:57:39;;;;;;;0.40;0.40;;;;;;;;;;6022273;23;20173;-84
2024/04/04 06:00:08;;;;;;;1.33;0.40;;;;;;;;;;6047912;23;20194;-83
2024/04/04 06:02:44;;;;;;;0.50;0.30;;;;;;;;;;6049128;23;20510;-83
2024/04/04 06:05:10;;;;;;;0.33;0.33;;;;;;;;;;6071864;23;20208;-84
2024/04/04 06:07:37;;;;;;;0.47;0.40;;;;;;;;;;6047580;23;20642;-83
2024/04/04 06:10:04;;;;;;;0.60;0.40;;;;;;;;;;6047606;23;20626;-83
2024/04/04 06:12:30;;;;;;;1.73;0.50;;;;;;;;;;6023732;23;20623;-84
2024/04/04 06:14:56;;;;;;;0.53;0.47;;;;;;;;;;6024260;23;20172;-83
2024/04/04 06:17:25;;;;;;;0.70;0.50;;;;;;;;;;6047505;23;20274;-83
2024/04/04 06:20:00;;;;;;;1.13;0.50;;;;;;;;;;6023875;23;20755;-84
2024/04/04 06:22:27;;;;;;;0.90;0.50;;;;;;;;;;6024269;23;20163;-84
2024/04/04 06:24:53;;;;;;;1.60;0.50;;;;;;;;;;6047599;23;20166;-84
2024/04/04 06:27:22;;;;;;;0.63;0.47;;;;;;;;;;6047598;23;20261;-84
2024/04/04 06:29:49;;;;;;;0.70;0.50;;;;;;;;;;6024457;23;20169;-83
2024/04/04 06:32:15;;;;;;;1.00;0.43;;;;;;;;;;6024404;23;20190;-84
2024/04/04 06:34:41;;;;;;;1.13;0.40;;;;;;;;;;6047981;23;20366;-83
2024/04/04 06:37:08;;;;;;;1.30;0.60;;;;;;;;;;6023504;23;20228;-84
2024/04/04 06:39:34;;;;;;;1.00;0.40;;;;;;;;;;6024471;23;20170;-83
2024/04/04 06:42:01;;;;;;;0.73;0.50;;;;;;;;;;6022840;23;20181;-82
2024/04/04 06:44:27;;;;;;;0.50;0.50;;;;;;;;;;6020047;23;20176;-83
2024/04/04 06:46:57;;;;;;;1.20;0.50;;;;;;;;;;6021421;23;20229;-82
2024/04/04 06:49:25;;;;;;;2.00;0.60;;;;;;;;;;6048390;23;20228;-83
2024/04/04 06:51:53;;;;;;;1.83;0.77;;;;;;;;;;6023593;23;20206;-84
2024/04/04 06:54:19;;;;;;;0.77;0.60;;;;;;;;;;6047266;23;20263;-83
2024/04/04 06:56:48;;;;;;;1.23;0.60;;;;;;;;;;6023737;23;20533;-83
2024/04/04 06:59:17;;;;;;;0.50;0.50;;;;;;;;;;6023752;23;20171;-82
2024/04/04 07:01:49;;;;;;;2.10;0.60;;;;;;;;;;6049111;23;20155;-83
2024/04/04 07:04:21;;;;;;;2.13;0.77;;;;;;;;;;6024637;23;20209;-84
2024/04/04 07:06:47;;;;;;;0.90;0.50;;;;;;;;;;6023656;23;20190;-84
2024/04/04 07:09:14;;;;;;;0.73;0.50;;;;;;;;;;6023557;23;20641;-84
2024/04/04 07:11:43;;;;;;;1.80;0.50;;;;;;;;;;6048138;23;20183;-84
2024/04/04 07:14:09;;;;;;;1.70;0.80;;;;;;;;;;6047274;23;20242;-84
2024/04/04 07:16:35;;;;;;;0.87;0.60;;;;;;;;;;6047353;23;20173;-84
2024/04/04 07:19:03;;;;;;;1.93;0.60;;;;;;;;;;6071080;23;20163;-84
2024/04/04 07:21:30;;;;;;;2.33;1.10;;;;;;;;;;6047140;23;20185;-84
2024/04/04 07:23:56;;;;;;;1.07;0.63;;;;;;;;;;6023602;23;20206;-83
2024/04/04 07:26:22;;;;;;;1.80;0.77;;;;;;;;;;6023642;23;20173;-84
2024/04/04 07:28:48;;;;;;;2.10;0.70;;;;;;;;;;6023051;23;20182;-84
2024/04/04 07:31:14;;;;;;;1.23;0.70;;;;;;;;;;6046876;23;20644;-83
2024/04/04 07:33:45;;;;;;;1.43;0.87;;;;;;;;;;6047128;23;20202;-83
2024/04/04 07:36:15;;;;;;;1.70;0.80;;;;;;;;;;6046967;23;20169;-82
2024/04/04 07:38:45;;;;;;;2.23;1.30;;;;;;;;;;6023287;23;20250;-85
2024/04/04 07:41:16;;;;;;;4.73;1.20;;;;;;;;;;6047350;23;20189;-83
2024/04/04 07:43:45;;;;;;;1.63;0.97;;;;;;;;;;6047046;23;20223;-84
2024/04/04 07:46:13;;;;;;;2.07;0.90;;;;;;;;;;6023220;23;20177;-83
2024/04/04 07:48:44;;;;;;;2.40;1.00;;;;;;;;;;6024672;23;20479;-83
2024/04/04 07:51:17;;;;;;;1.80;1.00;;;;;;;;;;6047691;23;20193;-84
2024/04/04 07:53:48;;;;;;;2.93;1.20;;;;;;;;;;6023775;23;20170;-83
2024/04/04 07:56:16;;;;;;;1.93;1.00;;;;;;;;;;6046505;23;20207;-83
2024/04/04 07:58:51;;;;;;;1.27;1.00;;;;;;;;;;6023764;23;20690;-83
2024/04/04 08:01:20;;;;;;;1.90;1.13;;;;;;;;;;6046549;23;20168;-82
2024/04/04 08:03:48;;;;;;;3.23;1.63;;;;;;;;;;6023113;23;20172;-83
2024/04/04 08:06:14;;;;;;;3.17;1.80;;;;;;;;;;6046694;23;20171;-83
2024/04/04 08:08:41;;;;;;;1.30;1.17;;;;;;;;;;6070455;23;20196;-83
2024/04/04 08:11:08;;;;;;;1.77;1.30;;;;;;;;;;6023064;23;20381;-83
2024/04/04 08:13:35;;;;;;;1.93;0.83;;;;;;;;;;6023000;23;20172;-83
2024/04/04 08:16:01;;;;;;;1.07;0.67;;;;;;;;;;6046741;23;20184;-83
2024/04/04 08:18:29;;;;;;;1.40;0.60;;;;;;;;;;6070454;23;20175;-82
2024/04/04 08:20:56;;;;;;;0.70;0.50;;;;;;;;;;6023054;23;20256;-83
2024/04/04 08:23:23;;;;;;;0.93;0.80;;;;;;;;;;6046286;23;20215;-82
2024/04/04 08:25:53;;;;;;;1.17;0.83;;;;;;;;;;6022584;23;20172;-83
2024/04/04 08:28:22;;;;;;;1.13;0.60;;;;;;;;;;6046207;23;20204;-82
2024/04/04 08:31:02;;;;;;;0.77;0.60;;;;;;;;;;6069884;23;20216;-82
2024/04/04 08:33:28;;;;;;;0.90;0.53;;;;;;;;;;6046166;23;20168;-82
2024/04/04 08:35:55;;;;;;;1.20;0.70;;;;;;;;;;6046095;23;20168;-82
2024/04/04 08:38:21;;;;;;;0.70;0.50;;;;;;;;;;6022551;23;20168;-82
2024/04/04 08:40:48;;;;;;;2.10;0.97;;;;;;;;;;6022258;23;20179;-82
2024/04/04 08:43:18;;;;;;;1.00;0.60;;;;;;;;;;6022900;23;20176;-82
2024/04/04 08:45:50;;;;;;;0.90;0.60;;;;;;;;;;6022310;23;20173;-83
2024/04/04 08:48:17;;;;;;;0.77;0.53;;;;;;;;;;6021808;23;20204;-83
2024/04/04 08:50:45;;;;;;;1.60;0.50;;;;;;;;;;6022230;23;20173;-82
2024/04/04 08:53:15;;;;;;;0.50;0.50;;;;;;;;;;6045698;23;20168;-82
2024/04/04 08:55:43;;;;;;;1.87;0.60;;;;;;;;;;6045380;23;20274;-82
2024/04/04 08:58:13;;;;;;;2.17;0.90;;;;;;;;;;6045773;23;20227;-83
2024/04/04 09:00:40;;;;;;;2.23;0.60;;;;;;;;;;6045671;23;20172;-83
2024/04/04 09:03:07;;;;;;;0.80;0.50;;;;;;;;;;6021876;23;20196;-82
2024/04/04 09:05:33;;;;;;;0.97;0.60;;;;;;;;;;6021705;23;20164;-82
2024/04/04 09:08:04;;;;;;;0.90;0.50;;;;;;;;;;6045232;23;20510;-82
2024/04/04 09:10:30;;;;;;;1.43;0.60;;;;;;;;;;6022095;23;20217;-82
2024/04/04 09:13:09;;;;;;;3.30;0.57;;;;;;;;;;6022374;23;20251;-81
2024/04/04 09:15:40;;;;;;;1.00;0.50;;;;;;;;;;6045991;23;20179;-82
2024/04/04 09:18:08;;;;;;;1.03;0.40;;;;;;;;;;6045583;23;20224;-82
2024/04/04 09:20:35;;;;;;;1.07;0.50;;;;;;;;;;6021957;23;20206;-82
2024/04/04 09:23:03;;;;;;;0.77;0.40;;;;;;;;;;6045229;23;20181;-82
2024/04/04 09:25:30;;;;;;;1.83;0.73;;;;;;;;;;6022211;23;20261;-82
2024/04/04 09:27:58;;;;;;;0.83;0.60;;;;;;;;;;6045223;23;20184;-82
2024/04/04 09:30:25;;;;;;;0.50;0.40;;;;;;;;;;6022337;23;20215;-82
2024/04/04 09:32:52;;;;;;;0.50;0.40;;;;;;;;;;6045618;23;20172;-82
2024/04/04 09:35:21;;;;;;;0.47;0.40;;;;;;;;;;6025029;23;20196;-81
2024/04/04 09:37:49;;;;;;;1.00;0.43;;;;;;;;;;6019170;23;20241;-83
2024/04/04 09:40:16;;;;;;;1.10;0.43;;;;;;;;;;6020028;23;20347;-82
2024/04/04 09:42:42;;;;;;;0.83;0.40;;;;;;;;;;6043434;23;20166;-82
2024/04/04 09:45:08;;;;;;;1.10;0.50;;;;;;;;;;6043795;23;20180;-82
2024/04/04 09:47:43;;;;;;;1.27;0.40;;;;;;;;;;6043402;23;20224;-82
2024/04/04 09:50:10;;;;;;;0.67;0.30;;;;;;;;;;6043872;23;20193;-83
2024/04/04 09:52:40;;;;;;;0.97;0.50;;;;;;;;;;6044044;23;20253;-82
2024/04/04 09:55:10;;;;;;;0.70;0.50;;;;;;;;;;6043809;23;20173;-83
2024/04/04 09:57:36;;;;;;;1.50;0.43;;;;;;;;;;6043756;23;20175;-82
2024/04/04 10:00:13;;;;;;;1.70;0.50;;;;;;;;;;6044284;23;20211;-81
2024/04/04 10:02:48;;;;;;;0.87;0.40;;;;;;;;;;6043698;23;20179;-82
2024/04/04 10:05:22;;;;;;;1.80;0.50;;;;;;;;;;6044545;23;20160;-82
2024/04/04 10:07:51;;;;;;;0.70;0.30;;;;;;;;;;6043288;23;20224;-81
2024/04/04 10:10:19;;;;;;;0.77;0.40;;;;;;;;;;6043608;23;20260;-83
2024/04/04 10:12:51;;;;;;;1.37;0.40;;;;;;;;;;6044304;23;20485;-82
2024/04/04 10:15:19;;;;;;;0.93;0.40;;;;;;;;;;6043448;23;20170;-83
2024/04/04 10:17:48;;;;;;;0.63;0.30;;;;;;;;;;6019909;23;20185;-82
2024/04/04 10:20:15;;;;;;;0.53;0.30;;;;;;;;;;6043992;23;20197;-83
2024/04/04 10:22:43;;;;;;;0.90;0.40;;;;;;;;;;6043902;23;20175;-84
2024/04/04 10:25:09;;;;;;;0.33;0.30;;;;;;;;;;6020116;23;20233;-83
2024/04/04 10:27:35;;;;;;;0.40;0.30;;;;;;;;;;6043477;23;20218;-82
2024/04/04 10:30:01;;;;;;;0.80;0.30;;;;;;;;;;6020174;23;20170;-82
2024/04/04 10:32:28;;;;;;;0.60;0.30;;;;;;;;;;6043605;23;20179;-81
2024/04/04 10:35:01;;;;;;;0.27;0.20;;;;;;;;;;6019934;23;20174;-82
2024/04/04 10:37:28;;;;;;;0.57;0.40;;;;;;;;;;6024271;23;20209;-82
2024/04/04 10:39:54;;;;;;;1.00;0.40;;;;;;;;;;6048366;23;20254;-83
2024/04/04 10:42:21;;;;;;;0.47;0.30;;;;;;;;;;6024703;23;20313;-82
2024/04/04 10:44:54;;;;;;;0.30;0.30;;;;;;;;;;6024031;23;20675;-82
2024/04/04 10:47:22;;;;;;;0.23;0.23;;;;;;;;;;6023073;23;20220;-83
2024/04/04 10:49:54;;;;;;;0.80;0.50;;;;;;;;;;6047853;23;20190;-82
2024/04/04 10:52:20;;;;;;;0.57;0.27;;;;;;;;;;6046930;23;20171;-83
2024/04/04 10:54:46;;;;;;;1.03;0.43;;;;;;;;;;6022673;23;20171;-83
2024/04/04 10:57:14;;;;;;;0.70;0.30;;;;;;;;;;6070695;23;20230;-83
2024/04/04 10:59:40;;;;;;;0.60;0.30;;;;;;;;;;6022969;23;20255;-82
2024/04/04 11:02:12;;;;;;;0.50;0.40;;;;;;;;;;6022876;23;20176;-82
2024/04/04 11:04:49;;;;;;;0.53;0.30;;;;;;;;;;6050267;23;20196;-82
2024/04/04 11:07:16;;;;;;;0.20;0.20;;;;;;;;;;6046596;23;20243;-81
2024/04/04 11:09:42;;;;;;;0.87;0.30;;;;;;;;;;6046556;23;20168;-81
2024/04/04 11:12:14;;;;;;;0.30;0.22;;;;;;;;;;6046252;23;20172;-82
2024/04/04 11:14:41;;;;;;;0.50;0.30;;;;;;;;;;6046241;23;20178;-81
2024/04/04 11:17:08;;;;;;;0.60;0.43;;;;;;;;;;6023405;23;20172;-81
2024/04/04 11:19:35;;;;;;;1.03;0.50;;;;;;;;;;6022776;23;20172;-80
2024/04/04 11:22:01;;;;;;;0.30;0.30;;;;;;;;;;6046220;23;20180;-81
2024/04/04 11:24:28;;;;;;;0.35;0.20;;;;;;;;;;6022649;23;20259;-81
2024/04/04 11:26:56;;;;;;;0.35;0.35;;;;;;;;;;6022688;23;20192;-81
2024/04/04 11:29:27;;;;;;;0.82;0.30;;;;;;;;;;6047409;23;20198;-81
2024/04/04 11:31:53;;;;;;;0.45;0.30;;;;;;;;;;6046050;23;20168;-81
2024/04/04 11:34:21;;;;;;;0.45;0.20;;;;;;;;;;6069815;23;20175;-82
2024/04/04 11:36:47;;;;;;;0.73;0.30;;;;;;;;;;6017230;23;20359;-81
2024/04/04 11:39:16;;;;;;;0.15;0.15;;;;;;;;;;6041077;23;20651;-81
2024/04/04 11:41:50;;;;;;;0.38;0.20;;;;;;;;;;6017685;23;20334;-81
2024/04/04 11:44:21;;;;;;;0.20;0.20;;;;;;;;;;6089176;23;20188;-80
2024/04/04 11:46:47;;;;;;;0.65;0.30;;;;;;;;;;6017750;23;20261;-82
2024/04/04 11:49:16;;;;;;;0.93;0.30;;;;;;;;;;6040890;23;20193;-81
2024/04/04 11:51:43;;;;;;;1.08;0.40;;;;;;;;;;6041270;23;20177;-80
2024/04/04 11:54:10;;;;;;;0.60;0.43;;;;;;;;;;6064947;23;20177;-81
2024/04/04 11:56:36;;;;;;;0.40;0.30;;;;;;;;;;6064868;23;20216;-81
2024/04/04 11:59:02;;;;;;;0.82;0.30;;;;;;;;;;6064975;23;20233;-79
2024/04/04 12:01:28;;;;;;;0.28;0.20;;;;;;;;;;6017679;23;20706;-80
2024/04/04 12:03:59;;;;;;;1.08;0.25;;;;;;;;;;6064905;23;20167;-80
2024/04/04 12:06:25;;;;;;;0.28;0.20;;;;;;;;;;6064813;23;20352;-80
2024/04/04 12:08:54;;;;;;;0.30;0.22;;;;;;;;;;6064608;23;20678;-80
2024/04/04 12:11:23;;;;;;;0.22;0.22;;;;;;;;;;6041351;23;20245;-80
2024/04/04 12:13:50;;;;;;;0.65;0.50;;;;;;;;;;6064700;23;20256;-80
2024/04/04 12:16:19;;;;;;;0.40;0.32;;;;;;;;;;6064683;23;20197;-79
2024/04/04 12:21:30;;;;;;;0.30;0.25;;;;;;;;;;6040755;23;20173;-80
2024/04/04 12:23:58;;;;;;;0.40;0.40;;;;;;;;;;6016898;23;20213;-81
2024/04/04 12:26:24;;;;;;;1.10;0.30;;;;;;;;;;6064444;23;20177;-81
2024/04/04 12:28:53;;;;;;;0.30;0.30;;;;;;;;;;6040291;23;20197;-80
2024/04/04 12:31:20;;;;;;;0.40;0.20;;;;;;;;;;6040768;23;20189;-80
2024/04/04 12:33:46;;;;;;;0.57;0.20;;;;;;;;;;6064030;23;20172;-80
2024/04/04 12:36:13;;;;;;;0.75;0.40;;;;;;;;;;6067360;23;20217;-80
2024/04/04 12:38:40;;;;;;;1.17;0.30;;;;;;;;;;6045247;23;20170;-79
2024/04/04 12:41:06;;;;;;;0.75;0.30;;;;;;;;;;6021691;23;20176;-80
2024/04/04 12:43:32;;;;;;;0.25;0.20;;;;;;;;;;6045040;23;20206;-80
2024/04/04 12:46:05;;;;;;;1.25;0.30;;;;;;;;;;6045711;23;20235;-80
2024/04/04 12:48:32;;;;;;;0.65;0.20;;;;;;;;;;6044673;23;20553;-80
2024/04/04 12:51:01;;;;;;;0.63;0.10;;;;;;;;;;6045223;23;20182;-80
2024/04/04 12:53:27;;;;;;;1.65;0.28;;;;;;;;;;6045215;23;20171;-80
2024/04/04 12:55:54;;;;;;;0.55;0.20;;;;;;;;;;6068856;23;20164;-80
2024/04/04 12:58:23;;;;;;;0.32;0.20;;;;;;;;;;6044948;23;20160;-80
2024/04/04 13:00:49;;;;;;;1.50;0.20;;;;;;;;;;6044985;23;20161;-80
2024/04/04 13:03:16;;;;;;;0.80;0.20;;;;;;;;;;6068491;23;20232;-80
2024/04/04 13:05:43;;;;;;;0.30;0.20;;;;;;;;;;6020690;23;20212;-80
2024/04/04 13:08:09;;;;;;;0.38;0.35;;;;;;;;;;6067900;23;20199;-80
2024/04/04 13:10:36;;;;;;;0.90;0.20;;;;;;;;;;6044906;23;20164;-79
2024/04/04 13:13:02;;;;;;;0.10;0.08;;;;;;;;;;6020751;23;20255;-82
2024/04/04 13:15:29;;;;;;;0.28;0.15;;;;;;;;;;6044738;23;20169;-80
2024/04/04 13:17:57;;;;;;;0.20;0.20;;;;;;;;;;6044796;23;20172;-81
2024/04/04 13:20:28;;;;;;;0.20;0.20;;;;;;;;;;6045896;23;20154;-81
2024/04/04 13:22:55;;;;;;;0.43;0.20;;;;;;;;;;6044346;23;20172;-80
2024/04/04 13:25:27;;;;;;;0.20;0.20;;;;;;;;;;6047446;23;20172;-80
2024/04/04 13:28:12;;;;;;;0.47;0.20;;;;;;;;;;6021602;23;20203;-80
2024/04/04 13:30:39;;;;;;;0.30;0.20;;;;;;;;;;6069005;23;20584;-80
2024/04/04 13:33:05;;;;;;;0.63;0.28;;;;;;;;;;6020921;23;20257;-80
2024/04/04 13:35:32;;;;;;;0.22;0.13;;;;;;;;;;6044794;23;20615;-80
2024/04/04 13:37:58;;;;;;;0.70;0.40;;;;;;;;;;6044660;23;20224;-80
2024/04/04 13:40:25;;;;;;;1.20;0.32;;;;;;;;;;6044770;23;20167;-80
2024/04/04 13:42:50;;;;;;;0.35;0.20;;;;;;;;;;6020978;23;20182;-80
2024/04/04 13:45:16;;;;;;;0.85;0.20;;;;;;;;;;6068250;23;20194;-81
2024/04/04 13:47:42;;;;;;;0.32;0.30;;;;;;;;;;6044675;23;20210;-81
2024/04/04 13:50:09;;;;;;;0.43;0.25;;;;;;;;;;6044238;23;20176;-81
2024/04/04 13:52:36;;;;;;;0.28;0.28;;;;;;;;;;6068625;23;20173;-81
2024/04/04 13:55:02;;;;;;;0.50;0.40;;;;;;;;;;6068127;23;20175;-81
2024/04/04 13:57:29;;;;;;;0.55;0.30;;;;;;;;;;6044725;23;20254;-81
2024/04/04 13:59:56;;;;;;;0.57;0.30;;;;;;;;;;6044936;23;20220;-81
2024/04/04 14:02:22;;;;;;;1.08;0.20;;;;;;;;;;6068475;23;20180;-80
2024/04/04 14:04:54;;;;;;;0.20;0.20;;;;;;;;;;6020815;23;20175;-80
2024/04/04 14:07:20;;;;;;;0.68;0.20;;;;;;;;;;6044527;23;20277;-80
2024/04/04 14:09:47;;;;;;;1.20;0.80;;;;;;;;;;6044549;23;20184;-80
2024/04/04 14:12:14;;;;;;;1.58;1.48;;;;;;;;;;6044747;23;20235;-80
2024/04/04 14:14:40;;;;;;;0.38;0.35;;;;;;;;;;6020972;23;20337;-81
2024/04/04 14:17:09;;;;;;;1.65;0.30;;;;;;;;;;6044720;23;20258;-80
2024/04/04 14:19:34;;;;;;;0.20;0.20;;;;;;;;;;6021407;23;20255;-80
2024/04/04 14:22:02;;;;;;;0.85;0.30;;;;;;;;;;6046697;23;20181;-81
2024/04/04 14:24:30;;;;;;;0.28;0.20;;;;;;;;;;6045134;23;20235;-80
2024/04/04 14:26:56;;;;;;;0.20;0.20;;;;;;;;;;6044430;23;20176;-80
2024/04/04 14:29:24;;;;;;;0.60;0.20;;;;;;;;;;6066588;23;20255;-79
2024/04/04 14:31:52;;;;;;;0.52;0.20;;;;;;;;;;6020956;23;20174;-80
2024/04/04 14:34:20;;;;;;;0.80;0.40;;;;;;;;;;6045487;23;20251;-80
2024/04/04 14:36:46;;;;;;;0.70;0.30;;;;;;;;;;6046135;23;20275;-80
2024/04/04 14:39:12;;;;;;;0.28;0.22;;;;;;;;;;6022309;23;20184;-80
2024/04/04 14:41:37;;;;;;;0.45;0.30;;;;;;;;;;6022180;23;20702;-80
2024/04/04 14:44:03;;;;;;;0.45;0.30;;;;;;;;;;6046230;23;20198;-80
2024/04/04 14:46:30;;;;;;;0.30;0.30;;;;;;;;;;6070117;23;20239;-80
2024/04/04 14:48:57;;;;;;;0.32;0.30;;;;;;;;;;6022607;23;20540;-80